Gouda, Netherlands
Current Conditions -  °F | °C
As of 2:25 AM on Tuesday 23 Dec 2014 (Local Time) from EHRD Reporting Station
Broken Clouds Broken Clouds  
Wind Chill: 52°   Ceiling: 1900
Heat Index: 52°   Visibility: 6mi
Dew Point: 46°   Wind: 22mph
Humidity: 82%   Direction: 250°WSW
Pressure: 30"   Gusts: 35mph
Location:  52.02°N, 4.71°E
Report Text: EHRD 230125Z AUTO 25019G30KT 210V290 9999 SCT015 BKN019 BKN02911/08 Q1016 NOSIG
Loading
Personal Weather Stations






























Interactive Weather Map New forecast layout! Learn more

10-Day Weather Forecast

Advertisements
Track Severe Weather on mobile